Terminal Aerodrome Forecast
Issued by NWS Buffalo, NY

Home | Current Version | Previous Version | Text Only | Print | Product List | Glossary On
Versions: 1 2 3 4 5 6 7 8 9 10 11 12 13 14 15 16 17 18 19 20 21 22 23 24 25 26 27 28 29 30 31 32 33 34
720
FTUS41 KBUF 130901 AAA
TAFROC
TAF AMD
KROC 130901Z 1309/1406 33017G28KT 5SM -SN BLSN BKN015 OVC030
      TEMPO 1309/1312 2SM -SN
     FM131200 32015G25KT 2SM -SN BLSN BKN015
     FM131500 30018G28KT 4SM -SHSN BLSN BKN015
     FM132200 30015G25KT 6SM -SN BLSN OVC025=

USA.gov is the U.S. government's official web portal to all federal, state and local government web resources and services.